Main page
METAR-TAF:

METAR-TAF

Airports :

Annecy – Haute-Savoie – Mont Blanc Airport

Annecy, France

latitude: 45-55-45N, longitude: 006-05-56E, elevation: 463 m

Current weather observation

The report was made 30 minutes ago, at 08:30 UTC
Wind 1 kt from variable directions
Temperature 1°C
Humidity 80%
Pressure 1014 hPa
Visibility 10 km or more
Overcast at a height of 4700 ft

METAR: LFLP 140830Z AUTO VRB01KT 9999 OVC047 01/M02 Q1014 NOSIG

Time: 10:00 (09:00 UTC)

Forecast

The report was made 1 hour and 0 minutes ago, at 08:00 UTC
Forecast valid from 14 at 09 UTC to 15 at 09 UTC
Wind 5 kt from the North
Visibility 10 km or more
Overcast at a height of 4000 ft
Becoming
from 14 at 10 UTC to 14 at 13 UTC
Visibility 10 km or more
no clouds below 1500 m and no cumulonimbus
Probability 40% :
Temporary
from 15 at 00 UTC to 15 at 08 UTC
Visibility: 0800 m
freezing fog

TAF: LFLP 140800Z 1409/1509 36005KT 9999 OVC040 BECMG 1410/1413 CAVOK PROB40 TEMPO 1500/1508 0800 FZFG VV///

Weather observations and forecasts of more than 4000 airports (METAR and TAF reports).

The available stations are represented by yellow and red dots on the map.

Hover mouse over dot to see the name of the station.

Then click to see weather observations and forecasts.

To change the map : click on the green buttons with a black cross to zoom in, on the green button with a dash to zoom out, or on the green arrows for adjacent maps.


METAR-TAF: